createdAt,value
2023-03-01T00:01:07.225Z,9.26
2023-03-01T00:02:08.799Z,9.32
2023-03-01T00:03:10.392Z,9.35
2023-03-01T00:04:11.978Z,9.40
2023-03-01T00:05:13.611Z,9.43
2023-03-01T00:06:15.559Z,9.33
2023-03-01T00:07:17.128Z,9.23
2023-03-01T00:08:18.667Z,9.28
2023-03-01T00:09:20.322Z,9.35
2023-03-01T00:10:21.840Z,9.37
2023-03-01T00:11:29.860Z,9.33
2023-03-01T00:12:32.599Z,9.33
2023-03-01T00:13:34.751Z,9.31
2023-03-01T00:14:36.888Z,9.22
2023-03-01T00:15:42.508Z,9.15
2023-03-01T00:16:46.213Z,9.12
2023-03-01T00:17:47.879Z,9.12
2023-03-01T00:18:49.822Z,9.12
2023-03-01T00:19:51.419Z,9.11
2023-03-01T00:20:54.511Z,9.02
2023-03-01T00:21:56.074Z,8.92
2023-03-01T00:22:57.755Z,8.90
2023-03-01T00:23:59.369Z,8.80
2023-03-01T00:25:00.942Z,8.77
2023-03-01T00:26:02.891Z,8.76
2023-03-01T00:27:04.455Z,8.78
2023-03-01T00:28:05.983Z,8.72
2023-03-01T00:29:07.752Z,8.71
2023-03-01T00:30:09.692Z,8.68
2023-03-01T00:31:19.596Z,8.64
2023-03-01T00:32:21.247Z,8.65
2023-03-01T00:33:22.900Z,8.73
2023-03-01T00:34:24.443Z,8.66
2023-03-01T00:35:26.009Z,8.67
2023-03-01T00:36:30.637Z,8.70
2023-03-01T00:37:32.431Z,8.75
2023-03-01T00:38:39.283Z,8.83
2023-03-01T00:39:40.857Z,8.85
2023-03-01T00:40:42.474Z,8.95
2023-03-01T00:41:44.218Z,9.03
2023-03-01T00:42:45.867Z,9.02
2023-03-01T00:43:47.462Z,9.06
2023-03-01T00:44:48.987Z,9.07
2023-03-01T00:45:50.659Z,9.05
2023-03-01T00:46:52.282Z,9.06
2023-03-01T00:47:54.125Z,9.09
2023-03-01T00:48:55.735Z,9.08
2023-03-01T00:49:57.329Z,8.97
2023-03-01T00:51:06.056Z,8.87
2023-03-01T00:52:07.633Z,8.84
2023-03-01T00:53:09.132Z,8.78
2023-03-01T00:54:10.882Z,8.80
2023-03-01T00:55:13.376Z,8.79
2023-03-01T00:56:16.109Z,8.82
2023-03-01T00:57:17.665Z,8.83
2023-03-01T00:58:19.214Z,8.91
2023-03-01T00:59:20.770Z,8.93
2023-03-01T01:00:22.590Z,8.99
2023-03-01T01:01:30.686Z,9.03
2023-03-01T01:02:34.515Z,8.98
2023-03-01T01:03:36.095Z,9.05
2023-03-01T01:04:37.627Z,9.15
2023-03-01T01:05:39.223Z,9.21
2023-03-01T01:06:46.126Z,9.16
2023-03-01T01:07:49.163Z,9.21
2023-03-01T01:08:51.789Z,9.21
2023-03-01T01:09:53.430Z,9.15
2023-03-01T01:10:54.967Z,9.26
2023-03-01T01:11:56.523Z,9.30
2023-03-01T01:12:59.217Z,9.32
2023-03-01T01:14:00.776Z,9.45
2023-03-01T01:15:02.443Z,9.45
2023-03-01T01:16:04.297Z,9.44
2023-03-01T01:17:05.892Z,9.46
2023-03-01T01:18:07.933Z,9.49
2023-03-01T01:19:11.711Z,9.51
2023-03-01T01:20:13.481Z,9.52
2023-03-01T01:21:17.747Z,9.58
2023-03-01T01:22:19.330Z,9.64
2023-03-01T01:23:20.850Z,9.72
2023-03-01T01:24:22.365Z,9.77
2023-03-01T01:25:26.039Z,9.75
2023-03-01T01:26:33.507Z,9.75
2023-03-01T01:27:35.323Z,9.79
2023-03-01T01:28:37.264Z,9.82
2023-03-01T01:29:38.842Z,9.88
2023-03-01T01:30:40.369Z,9.93
2023-03-01T01:31:43.624Z,10.01
2023-03-01T01:32:45.156Z,9.97
2023-03-01T01:33:47.263Z,9.91
2023-03-01T01:36:08.670Z,9.95
2023-03-01T01:37:10.266Z,9.84
2023-03-01T01:38:12.059Z,9.80
2023-03-01T01:39:14.150Z,9.70
2023-03-01T01:40:15.736Z,9.62
2023-03-01T01:41:18.144Z,9.61
2023-03-01T01:45:29.491Z,9.66
2023-03-01T01:46:34.256Z,9.66
2023-03-01T01:47:36.339Z,9.64
2023-03-01T01:48:45.931Z,9.68
2023-03-01T01:49:52.078Z,9.64
2023-03-01T01:51:00.093Z,9.60
2023-03-01T01:52:08.493Z,9.61
2023-03-01T01:53:18.132Z,9.67
2023-03-01T01:54:27.013Z,9.63
2023-03-01T01:55:28.959Z,9.69
2023-03-01T01:56:31.395Z,9.73
2023-03-01T01:57:42.890Z,9.62
2023-03-01T01:58:45.016Z,9.45
2023-03-01T01:59:51.859Z,9.29
2023-03-01T02:00:54.821Z,9.26
2023-03-01T02:01:58.938Z,9.31
2023-03-01T02:03:30.115Z,9.25
2023-03-01T02:04:33.937Z,9.18
2023-03-01T02:05:59.475Z,9.16
2023-03-01T02:07:16.517Z,9.25
2023-03-01T02:08:20.744Z,9.27
2023-03-01T02:09:24.188Z,9.28
2023-03-01T02:10:27.358Z,9.32
2023-03-01T02:11:32.218Z,9.34
2023-03-01T02:12:35.124Z,9.34
2023-03-01T02:13:37.285Z,9.38
2023-03-01T02:14:38.842Z,9.42
2023-03-01T02:15:42.351Z,9.48
2023-03-01T02:16:44.358Z,9.56
2023-03-01T02:17:46.050Z,9.64
2023-03-01T02:18:47.856Z,9.68
2023-03-01T02:20:08.433Z,9.71
2023-03-01T02:21:28.131Z,9.67
2023-03-01T02:22:32.510Z,9.59
2023-03-01T02:23:34.984Z,9.55
2023-03-01T02:24:46.709Z,9.51
2023-03-01T02:25:58.774Z,9.51
2023-03-01T02:27:01.700Z,9.39
2023-03-01T02:28:05.965Z,9.30
2023-03-01T02:29:07.739Z,9.27
2023-03-01T02:30:13.221Z,9.16
2023-03-01T02:31:36.975Z,9.15
2023-03-01T02:32:42.568Z,9.06
2023-03-01T02:33:46.441Z,8.97
2023-03-01T02:34:48.259Z,8.88
2023-03-01T02:35:50.049Z,8.83
2023-03-01T02:37:05.608Z,8.77
2023-03-01T02:38:09.806Z,8.84
2023-03-01T02:39:17.603Z,8.86
2023-03-01T02:40:22.621Z,8.83
2023-03-01T02:41:27.269Z,8.82
2023-03-01T02:42:36.516Z,8.84
2023-03-01T02:43:38.325Z,8.87
2023-03-01T02:44:39.855Z,8.87
2023-03-01T02:45:48.937Z,8.93
2023-03-01T02:46:53.708Z,9.02
2023-03-01T02:47:57.143Z,9.07
2023-03-01T02:48:59.907Z,9.05
2023-03-01T02:50:01.474Z,8.96
2023-03-01T02:51:13.431Z,8.88
2023-03-01T02:52:47.972Z,8.93
2023-03-01T02:53:57.231Z,9.01
2023-03-01T02:55:17.689Z,9.11
2023-03-01T02:56:19.374Z,9.16
2023-03-01T02:57:22.977Z,9.18
2023-03-01T02:58:24.472Z,9.09
2023-03-01T02:59:31.776Z,9.07
2023-03-01T03:00:47.906Z,9.02
2023-03-01T03:01:49.569Z,8.92
2023-03-01T03:02:53.568Z,8.87
2023-03-01T03:03:55.150Z,8.83
2023-03-01T03:04:56.732Z,8.73
2023-03-01T03:05:58.640Z,8.67
2023-03-01T03:07:00.218Z,8.65
2023-03-01T03:08:04.132Z,8.60
2023-03-01T03:09:05.924Z,8.53
2023-03-01T03:10:12.253Z,8.47
2023-03-01T03:11:13.863Z,8.45
2023-03-01T03:12:15.380Z,8.42
2023-03-01T03:13:17.788Z,8.36
2023-03-01T03:14:19.989Z,8.28
2023-03-01T03:15:23.075Z,8.24
2023-03-01T03:16:25.660Z,8.21
2023-03-01T03:17:27.350Z,8.11
2023-03-01T03:18:28.960Z,8.06
2023-03-01T03:19:30.544Z,8.00
2023-03-01T03:20:32.796Z,7.99
2023-03-01T03:21:35.256Z,7.97
2023-03-01T03:22:36.861Z,7.94
2023-03-01T03:23:38.798Z,7.96
2023-03-01T03:24:40.385Z,7.97
2023-03-01T03:25:41.988Z,7.97
2023-03-01T03:26:43.520Z,8.04
2023-03-01T03:27:47.024Z,8.13
2023-03-01T03:28:48.608Z,8.24
2023-03-01T03:29:50.410Z,8.31
2023-03-01T03:30:52.104Z,8.37
2023-03-01T03:31:53.732Z,8.47
2023-03-01T03:32:56.602Z,8.55
2023-03-01T03:33:59.901Z,8.63
2023-03-01T03:35:01.479Z,8.70
2023-03-01T03:36:03.477Z,8.77
2023-03-01T03:37:05.062Z,8.84
2023-03-01T03:38:16.474Z,8.91
2023-03-01T03:39:20.588Z,9.00
2023-03-01T03:40:22.330Z,9.07
2023-03-01T03:41:23.868Z,9.08
2023-03-01T03:42:25.403Z,9.11
2023-03-01T03:43:26.997Z,9.16
2023-03-01T03:44:28.544Z,9.18
2023-03-01T03:45:30.310Z,9.19
2023-03-01T03:46:32.218Z,9.18
2023-03-01T03:47:34.237Z,9.18
2023-03-01T03:48:38.038Z,9.15
2023-03-01T03:49:39.613Z,9.11
2023-03-01T03:50:41.769Z,9.08
2023-03-01T03:51:43.395Z,9.03
2023-03-01T03:52:45.434Z,8.83
2023-03-01T03:53:47.217Z,8.82
2023-03-01T03:54:48.792Z,8.80
2023-03-01T03:55:50.546Z,8.75
2023-03-01T03:56:52.113Z,8.76
2023-03-01T03:57:55.035Z,8.79
2023-03-01T03:58:56.690Z,8.77
2023-03-01T03:59:58.282Z,8.76
2023-03-01T04:01:01.826Z,8.65
2023-03-01T04:02:03.415Z,8.57
2023-03-01T04:03:05.238Z,8.59
2023-03-01T04:04:08.823Z,8.64
2023-03-01T04:05:12.626Z,8.54
2023-03-01T04:06:17.229Z,8.42
2023-03-01T04:07:18.914Z,8.43
2023-03-01T04:08:22.514Z,8.44
2023-03-01T04:09:24.055Z,8.41
2023-03-01T04:10:25.613Z,8.39
2023-03-01T04:11:27.231Z,8.38
2023-03-01T04:12:28.791Z,8.38
2023-03-01T04:13:30.577Z,8.34
2023-03-01T04:14:32.126Z,8.30
2023-03-01T04:15:35.118Z,8.25
2023-03-01T04:16:36.665Z,8.18
2023-03-01T04:17:38.226Z,8.14
2023-03-01T04:18:39.771Z,8.08
2023-03-01T04:19:41.284Z,8.03
2023-03-01T04:20:43.942Z,8.02
2023-03-01T04:21:45.473Z,7.99
2023-03-01T04:22:47.978Z,8.03
2023-03-01T04:23:49.598Z,8.06
2023-03-01T04:24:51.138Z,8.01
2023-03-01T04:25:55.192Z,8.01
2023-03-01T04:26:56.765Z,7.97
2023-03-01T04:27:58.327Z,8.00
2023-03-01T04:28:59.943Z,7.94
2023-03-01T04:30:02.737Z,7.92
2023-03-01T04:31:17.622Z,7.93
2023-03-01T04:32:19.641Z,8.01
2023-03-01T04:33:22.046Z,8.07
2023-03-01T04:34:23.578Z,8.10
2023-03-01T04:35:25.234Z,8.08
2023-03-01T04:36:29.027Z,8.14
2023-03-01T04:37:30.884Z,8.13
2023-03-01T04:38:32.447Z,8.19
2023-03-01T04:39:34.170Z,8.26
2023-03-01T04:40:36.133Z,8.33
2023-03-01T04:41:39.070Z,8.40
2023-03-01T04:42:40.616Z,8.48
2023-03-01T04:43:42.144Z,8.51
2023-03-01T04:44:44.479Z,8.59
2023-03-01T04:45:46.190Z,8.66
2023-03-01T04:46:50.562Z,8.70
2023-03-01T04:47:54.805Z,8.69
2023-03-01T04:48:56.456Z,8.73
2023-03-01T04:49:58.021Z,8.71
2023-03-01T04:51:01.230Z,8.72
2023-03-01T04:52:05.581Z,8.71
2023-03-01T04:53:07.131Z,8.67
2023-03-01T04:54:09.813Z,8.70
2023-03-01T04:55:11.938Z,8.76
2023-03-01T04:56:18.775Z,8.77
2023-03-01T04:57:20.952Z,8.71
2023-03-01T04:58:25.046Z,8.53
2023-03-01T04:59:26.803Z,8.47
2023-03-01T05:00:28.368Z,8.39
2023-03-01T05:01:29.893Z,8.34
2023-03-01T05:02:31.466Z,8.28
2023-03-01T05:03:33.036Z,8.32
2023-03-01T05:04:34.731Z,8.39
2023-03-01T05:05:38.491Z,8.40
2023-03-01T05:06:40.700Z,8.33
2023-03-01T05:07:42.484Z,8.37
2023-03-01T05:08:44.718Z,8.39
2023-03-01T05:09:47.638Z,8.45
2023-03-01T05:10:52.343Z,8.43
2023-03-01T05:11:53.978Z,8.46
2023-03-01T05:12:58.235Z,8.51
2023-03-01T05:14:00.113Z,8.56
2023-03-01T05:15:01.689Z,8.57
2023-03-01T05:16:05.200Z,8.61
2023-03-01T05:17:07.171Z,8.67
2023-03-01T05:18:12.353Z,8.69
2023-03-01T05:19:16.467Z,8.71
2023-03-01T05:20:18.539Z,8.62
2023-03-01T05:21:20.107Z,8.61
2023-03-01T05:22:21.713Z,8.67
2023-03-01T05:23:24.217Z,8.70
2023-03-01T05:24:25.862Z,8.67
2023-03-01T05:25:28.160Z,8.68
2023-03-01T05:26:29.730Z,8.71
2023-03-01T05:27:32.040Z,8.78
2023-03-01T05:28:33.978Z,8.78
2023-03-01T05:29:36.034Z,8.78
2023-03-01T05:30:40.048Z,8.73
2023-03-01T05:31:42.024Z,8.65
2023-03-01T05:32:45.810Z,8.50
2023-03-01T05:33:47.455Z,8.46
2023-03-01T05:34:48.978Z,8.54
2023-03-01T05:35:52.832Z,8.61
2023-03-01T05:36:54.845Z,8.63
2023-03-01T05:37:56.414Z,8.65
2023-03-01T05:38:57.941Z,8.68
2023-03-01T05:39:59.488Z,8.72
2023-03-01T05:41:01.194Z,8.64
2023-03-01T05:42:03.074Z,8.38
2023-03-01T05:43:06.316Z,8.36
2023-03-01T05:44:08.330Z,8.31
2023-03-01T05:45:11.042Z,8.23
2023-03-01T05:46:14.497Z,8.24
2023-03-01T05:47:16.207Z,8.20
2023-03-01T05:48:20.434Z,8.17
2023-03-01T05:49:25.044Z,8.19
2023-03-01T05:50:29.249Z,8.29
2023-03-01T05:51:30.998Z,8.28
2023-03-01T05:52:32.515Z,8.25
2023-03-01T05:53:34.176Z,8.29
2023-03-01T05:54:35.751Z,8.27
2023-03-01T05:55:37.528Z,8.22
2023-03-01T05:56:39.182Z,8.19
2023-03-01T05:57:40.745Z,8.18
2023-03-01T05:58:42.295Z,8.03
2023-03-01T05:59:43.848Z,7.96
2023-03-01T06:00:48.621Z,7.94
2023-03-01T06:01:51.069Z,7.97
2023-03-01T06:02:54.909Z,8.04
2023-03-01T06:03:57.706Z,7.93
2023-03-01T06:04:59.462Z,7.84
2023-03-01T06:06:01.069Z,7.89
2023-03-01T06:07:02.628Z,7.84
2023-03-01T06:08:04.417Z,7.80
2023-03-01T06:09:08.306Z,7.76
2023-03-01T06:10:11.422Z,7.76
2023-03-01T06:11:13.001Z,7.71
2023-03-01T06:12:14.520Z,7.70
2023-03-01T06:13:16.090Z,7.70
2023-03-01T06:14:17.631Z,7.71
2023-03-01T06:15:19.265Z,7.74
2023-03-01T06:16:20.834Z,7.79
2023-03-01T06:17:22.450Z,7.79
2023-03-01T06:18:23.999Z,7.81
2023-03-01T06:19:25.567Z,7.81
2023-03-01T06:20:29.755Z,7.86
2023-03-01T06:21:31.304Z,7.88
2023-03-01T06:22:32.910Z,7.89
2023-03-01T06:23:35.118Z,7.95
2023-03-01T06:24:36.805Z,8.02
2023-03-01T06:25:38.378Z,8.07
2023-03-01T06:26:40.054Z,8.09
2023-03-01T06:27:42.310Z,8.06
2023-03-01T06:28:47.018Z,8.11
2023-03-01T06:29:48.972Z,8.14
2023-03-01T06:30:51.078Z,8.17
2023-03-01T06:31:52.984Z,8.20
2023-03-01T06:33:02.207Z,8.25
2023-03-01T06:34:04.157Z,8.17
2023-03-01T06:35:06.379Z,8.20
2023-03-01T06:36:08.845Z,8.25
2023-03-01T06:37:10.637Z,8.27
2023-03-01T06:38:12.220Z,8.29
2023-03-01T06:39:13.792Z,8.29
2023-03-01T06:40:16.209Z,8.30
2023-03-01T06:41:17.791Z,8.29
2023-03-01T06:42:19.379Z,8.27
2023-03-01T06:43:21.887Z,8.24
2023-03-01T06:44:23.437Z,8.23
2023-03-01T06:45:25.601Z,8.20
2023-03-01T06:46:27.224Z,8.14
2023-03-01T06:47:28.969Z,8.12
2023-03-01T06:48:30.568Z,8.15
2023-03-01T06:49:32.244Z,8.20
2023-03-01T06:50:35.450Z,8.19
2023-03-01T06:51:37.964Z,8.19
2023-03-01T06:52:40.105Z,8.20
2023-03-01T06:53:41.811Z,8.23
2023-03-01T06:54:43.358Z,8.26
2023-03-01T06:55:45.096Z,8.27
2023-03-01T06:56:50.858Z,8.29
2023-03-01T06:57:57.238Z,8.30
2023-03-01T06:58:59.113Z,8.30
2023-03-01T07:00:00.770Z,8.32
2023-03-01T07:01:06.959Z,8.39
2023-03-01T07:02:12.693Z,8.38
2023-03-01T07:03:14.382Z,8.47
2023-03-01T07:04:15.959Z,8.46
2023-03-01T07:05:17.531Z,8.48
2023-03-01T07:06:19.091Z,8.54
2023-03-01T07:07:21.025Z,8.57
2023-03-01T07:08:22.601Z,8.57
2023-03-01T07:09:25.009Z,8.60
2023-03-01T07:10:26.582Z,8.60
2023-03-01T07:11:28.152Z,8.65
2023-03-01T07:12:29.714Z,8.65
2023-03-01T07:13:31.316Z,8.69
2023-03-01T07:14:32.977Z,8.72
2023-03-01T07:15:34.542Z,8.71
2023-03-01T07:16:36.426Z,8.73
2023-03-01T07:17:38.069Z,8.74
2023-03-01T07:18:39.617Z,8.75
2023-03-01T07:19:41.165Z,8.64
2023-03-01T07:20:42.808Z,8.63
2023-03-01T07:21:44.307Z,8.68
2023-03-01T07:22:45.830Z,8.74
2023-03-01T07:23:49.262Z,8.83
2023-03-01T07:24:50.786Z,8.85
2023-03-01T07:25:56.184Z,8.92
2023-03-01T07:26:57.718Z,8.89
2023-03-01T07:27:59.294Z,8.82
2023-03-01T07:29:02.154Z,8.75
2023-03-01T07:30:04.502Z,8.65
2023-03-01T07:31:09.022Z,8.63
2023-03-01T07:32:11.166Z,8.54
2023-03-01T07:33:12.741Z,8.47
2023-03-01T07:34:14.287Z,8.46
2023-03-01T07:35:16.036Z,8.45
2023-03-01T07:36:17.644Z,8.38
2023-03-01T07:37:19.270Z,8.31
2023-03-01T07:38:20.814Z,8.28
2023-03-01T07:39:24.028Z,8.31
2023-03-01T07:40:25.630Z,8.30
2023-03-01T07:41:27.173Z,8.35
2023-03-01T07:42:28.700Z,8.37
2023-03-01T07:43:31.597Z,8.41
2023-03-01T07:44:33.207Z,8.39
2023-03-01T07:45:34.838Z,8.39
2023-03-01T07:46:36.363Z,8.40
2023-03-01T07:47:38.162Z,8.47
2023-03-01T07:48:39.762Z,8.42
2023-03-01T07:49:41.362Z,8.41
2023-03-01T07:50:42.970Z,8.44
2023-03-01T07:51:44.800Z,8.53
2023-03-01T07:52:47.845Z,8.55
2023-03-01T07:53:49.655Z,8.57
2023-03-01T07:54:51.311Z,8.67
2023-03-01T07:56:12.331Z,8.66
2023-03-01T07:57:13.896Z,8.67
2023-03-01T07:58:15.461Z,8.76
2023-03-01T07:59:17.083Z,8.88
2023-03-01T08:00:18.992Z,8.95
2023-03-01T08:01:22.198Z,8.96
2023-03-01T08:02:24.034Z,8.99
2023-03-01T08:03:25.615Z,9.01
2023-03-01T08:04:27.722Z,9.01
2023-03-01T08:05:30.294Z,8.97
2023-03-01T08:06:32.361Z,8.99
2023-03-01T08:07:34.342Z,9.03
2023-03-01T08:08:36.845Z,9.04
2023-03-01T08:09:38.765Z,9.07
2023-03-01T08:10:40.440Z,9.15
2023-03-01T08:11:42.075Z,9.14
2023-03-01T08:12:43.781Z,9.20
2023-03-01T08:13:45.393Z,9.22
2023-03-01T08:14:47.042Z,9.24
2023-03-01T08:15:48.823Z,9.21
2023-03-01T08:16:51.200Z,9.20
2023-03-01T08:17:52.883Z,9.22
2023-03-01T08:18:57.545Z,9.12
2023-03-01T08:19:59.107Z,9.11
2023-03-01T08:21:09.393Z,9.19
2023-03-01T08:22:10.974Z,9.19
2023-03-01T08:23:12.838Z,9.17
2023-03-01T08:24:14.817Z,9.16
2023-03-01T08:25:16.471Z,9.18
2023-03-01T08:26:20.766Z,9.22
2023-03-01T08:27:23.970Z,9.26
2023-03-01T08:28:26.124Z,9.30
2023-03-01T08:29:27.707Z,9.33
2023-03-01T08:30:29.575Z,9.31
2023-03-01T08:31:40.060Z,9.28
2023-03-01T08:32:41.744Z,9.27
2023-03-01T08:33:43.647Z,9.29
2023-03-01T08:34:48.397Z,9.29
2023-03-01T08:35:49.974Z,9.33
2023-03-01T08:36:53.186Z,9.34
2023-03-01T08:37:54.746Z,9.42
2023-03-01T08:38:56.542Z,9.45
2023-03-01T08:39:58.177Z,9.47
2023-03-01T08:41:04.401Z,9.50
2023-03-01T08:42:06.101Z,9.53
2023-03-01T08:43:07.711Z,9.47
2023-03-01T08:44:12.272Z,9.51
2023-03-01T08:45:15.229Z,9.51
2023-03-01T08:46:17.091Z,9.61
2023-03-01T08:47:18.829Z,9.70
2023-03-01T08:48:20.433Z,9.75
2023-03-01T08:49:22.618Z,9.79
2023-03-01T08:50:25.444Z,9.84
2023-03-01T08:51:27.655Z,9.89
2023-03-01T08:52:31.087Z,9.80
2023-03-01T08:53:32.627Z,9.70
2023-03-01T08:54:34.270Z,9.72
2023-03-01T08:55:35.791Z,9.80
2023-03-01T08:56:37.678Z,9.91
2023-03-01T08:57:39.202Z,10.02
2023-03-01T08:58:40.986Z,9.99
2023-03-01T08:59:42.618Z,10.02
2023-03-01T09:00:44.211Z,10.01
2023-03-01T09:01:46.293Z,10.05
2023-03-01T09:02:47.855Z,10.14
2023-03-01T09:03:49.535Z,10.24
2023-03-01T09:04:51.734Z,10.27
2023-03-01T09:05:53.867Z,10.29
2023-03-01T09:06:55.704Z,10.36
2023-03-01T09:07:58.676Z,10.39
2023-03-01T09:09:00.738Z,10.36
2023-03-01T09:10:02.329Z,10.39
2023-03-01T09:11:05.390Z,10.44
2023-03-01T09:12:07.410Z,10.51
2023-03-01T09:13:09.236Z,10.52
2023-03-01T09:14:10.849Z,10.50
2023-03-01T09:15:12.593Z,10.54
2023-03-01T09:16:17.624Z,10.55
2023-03-01T09:17:19.363Z,10.51
2023-03-01T09:18:20.961Z,10.46
2023-03-01T09:19:22.599Z,10.48
2023-03-01T09:20:24.160Z,10.48
2023-03-01T09:21:39.237Z,10.40
2023-03-01T09:22:41.984Z,10.37
2023-03-01T09:23:45.877Z,10.32
2023-03-01T09:24:47.520Z,10.28
2023-03-01T09:25:49.078Z,10.32
2023-03-01T09:26:51.819Z,10.39
2023-03-01T09:27:54.102Z,10.47
2023-03-01T09:28:57.218Z,10.50
2023-03-01T09:29:58.774Z,10.52
2023-03-01T09:31:01.035Z,10.59
2023-03-01T09:32:02.775Z,10.63
2023-03-01T09:33:04.379Z,10.73
2023-03-01T09:34:06.275Z,10.75
2023-03-01T09:35:08.369Z,10.82
2023-03-01T09:36:14.001Z,10.90
2023-03-01T09:37:15.990Z,10.93
2023-03-01T09:38:17.612Z,10.95
2023-03-01T09:39:19.539Z,11.03
2023-03-01T09:40:25.373Z,11.07
2023-03-01T09:41:50.226Z,11.09
2023-03-01T09:43:04.247Z,11.17
2023-03-01T09:44:16.892Z,11.15
2023-03-01T09:45:41.730Z,11.23
2023-03-01T09:46:46.256Z,11.32
2023-03-01T09:47:49.593Z,11.40
2023-03-01T09:49:03.073Z,11.51
2023-03-01T09:50:12.998Z,11.60
2023-03-01T09:51:20.589Z,11.64
2023-03-01T09:52:35.672Z,11.67
2023-03-01T09:53:37.301Z,11.71
2023-03-01T09:54:39.060Z,11.76
2023-03-01T09:56:16.063Z,12.01
2023-03-01T09:57:31.243Z,12.01
2023-03-01T09:59:00.367Z,12.00
2023-03-01T10:00:24.144Z,12.13
2023-03-01T10:01:44.627Z,12.16
2023-03-01T10:03:01.924Z,12.22
2023-03-01T10:04:14.044Z,12.32
2023-03-01T10:05:35.205Z,12.38
2023-03-01T10:06:36.793Z,12.47
2023-03-01T10:07:47.609Z,12.49
2023-03-01T10:08:59.010Z,12.46
2023-03-01T10:10:02.257Z,12.42
2023-03-01T10:11:05.441Z,12.34
2023-03-01T10:12:38.667Z,12.19
2023-03-01T10:13:45.854Z,12.11
2023-03-01T10:15:11.774Z,11.97
2023-03-01T10:16:18.398Z,11.87
2023-03-01T10:17:32.711Z,11.84
2023-03-01T10:18:37.822Z,11.83
2023-03-01T10:19:45.244Z,11.75
2023-03-01T10:20:54.405Z,11.75
2023-03-01T10:22:02.106Z,11.70
2023-03-01T10:23:03.734Z,11.64
2023-03-01T10:24:17.350Z,11.61
2023-03-01T10:25:36.745Z,11.58
2023-03-01T10:26:47.923Z,11.47
2023-03-01T10:27:55.881Z,11.38
2023-03-01T10:29:03.535Z,11.40
2023-03-01T10:30:10.503Z,11.45
2023-03-01T10:31:23.158Z,11.45
2023-03-01T10:32:25.808Z,11.37
2023-03-01T10:33:33.932Z,11.33
2023-03-01T10:34:36.677Z,11.36
2023-03-01T10:35:38.375Z,11.41
2023-03-01T10:36:41.896Z,11.49
2023-03-01T10:38:05.377Z,11.45
2023-03-01T10:39:20.141Z,11.56
2023-03-01T10:40:21.756Z,11.62
2023-03-01T10:41:25.944Z,11.54
2023-03-01T10:42:29.679Z,11.60
2023-03-01T10:43:45.480Z,11.67
2023-03-01T10:44:49.534Z,11.69
2023-03-01T10:45:52.052Z,11.71
2023-03-01T10:47:02.146Z,11.84
2023-03-01T10:48:12.133Z,11.86
2023-03-01T10:49:20.535Z,11.82
2023-03-01T10:50:24.369Z,11.83
2023-03-01T10:51:25.922Z,11.84
2023-03-01T10:52:29.567Z,11.89
2023-03-01T10:53:34.171Z,11.99
2023-03-01T10:54:35.766Z,12.05
2023-03-01T10:55:40.714Z,12.02
2023-03-01T10:56:54.841Z,12.10
2023-03-01T10:58:23.341Z,12.19
2023-03-01T10:59:38.036Z,12.26
2023-03-01T11:01:01.360Z,12.26
2023-03-01T11:02:12.071Z,12.20
2023-03-01T11:03:31.935Z,12.17
2023-03-01T11:04:33.623Z,12.15
2023-03-01T11:05:35.312Z,12.02
2023-03-01T11:06:38.829Z,12.00
2023-03-01T11:07:52.917Z,11.98
2023-03-01T11:08:55.234Z,12.00
2023-03-01T11:09:56.832Z,11.96
2023-03-01T11:11:10.198Z,12.02
2023-03-01T11:12:16.910Z,12.07
2023-03-01T11:13:20.607Z,12.12
2023-03-01T11:14:27.148Z,12.19
2023-03-01T11:15:29.910Z,12.21
2023-03-01T11:16:39.983Z,12.28
2023-03-01T11:17:54.515Z,12.31
2023-03-01T11:19:02.269Z,12.30
2023-03-01T11:20:26.917Z,12.26
2023-03-01T11:21:32.878Z,12.29
2023-03-01T11:22:36.939Z,12.25
2023-03-01T11:23:40.913Z,12.22
2023-03-01T11:24:57.287Z,12.23
2023-03-01T11:26:11.609Z,12.25
2023-03-01T11:27:34.291Z,12.29
2023-03-01T11:28:40.800Z,12.33
2023-03-01T11:29:55.574Z,12.43
2023-03-01T11:31:09.736Z,12.46
2023-03-01T11:32:14.542Z,12.48
2023-03-01T11:33:34.250Z,12.46
2023-03-01T11:34:45.799Z,12.44
2023-03-01T11:36:06.796Z,12.45
2023-03-01T11:37:24.170Z,12.52
2023-03-01T11:38:31.885Z,12.58
2023-03-01T11:39:48.039Z,12.57
2023-03-01T11:41:09.795Z,12.55
2023-03-01T11:42:20.841Z,12.54
2023-03-01T11:43:54.018Z,12.53
2023-03-01T11:45:01.507Z,12.55
2023-03-01T11:46:12.904Z,12.53
2023-03-01T11:47:23.870Z,12.49
2023-03-01T11:49:02.256Z,12.46
2023-03-01T11:50:45.002Z,12.41
2023-03-01T11:52:01.770Z,12.41
2023-03-01T11:53:30.253Z,12.38
2023-03-01T11:55:02.671Z,12.29
2023-03-01T11:56:35.054Z,12.18
2023-03-01T11:58:15.234Z,12.17
2023-03-01T11:59:31.737Z,12.17
2023-03-01T12:00:42.158Z,12.16
2023-03-01T12:02:11.553Z,12.11
2023-03-01T12:03:26.539Z,12.21
2023-03-01T12:04:55.134Z,12.25
2023-03-01T12:06:18.236Z,12.25
2023-03-01T12:07:47.976Z,12.31
2023-03-01T12:09:14.995Z,12.39
2023-03-01T12:10:30.151Z,12.37
2023-03-01T12:11:34.792Z,12.34
2023-03-01T12:12:50.025Z,12.33
2023-03-01T12:14:10.074Z,12.38
2023-03-01T12:15:23.579Z,12.38
2023-03-01T12:16:46.954Z,12.35
2023-03-01T12:18:02.069Z,12.29
2023-03-01T12:19:18.624Z,12.26
2023-03-01T12:20:46.978Z,12.26
2023-03-01T12:22:06.645Z,12.31
2023-03-01T12:23:41.320Z,12.33
2023-03-01T12:25:01.017Z,12.29
2023-03-01T12:26:09.019Z,12.25
2023-03-01T12:27:38.493Z,12.26
2023-03-01T12:29:12.700Z,12.26
2023-03-01T12:30:20.004Z,12.34
2023-03-01T12:31:46.333Z,12.26
2023-03-01T12:32:59.888Z,12.19
2023-03-01T12:34:20.426Z,12.13
2023-03-01T12:35:31.043Z,12.07
2023-03-01T12:36:56.044Z,12.11
2023-03-01T12:38:29.731Z,12.07
2023-03-01T12:40:08.745Z,12.04
2023-03-01T12:41:29.213Z,11.99
2023-03-01T12:42:58.483Z,11.95
2023-03-01T12:44:18.774Z,11.96
2023-03-01T13:32:53.564Z,12.53
2023-03-01T13:33:59.486Z,12.54
2023-03-01T13:35:26.687Z,12.54
2023-03-01T13:36:28.185Z,12.58
2023-03-01T13:37:38.496Z,12.62
2023-03-01T13:38:46.948Z,12.65
2023-03-01T13:39:48.651Z,12.65
2023-03-01T13:40:53.049Z,12.56
2023-03-01T13:41:56.981Z,12.53
2023-03-01T13:43:29.414Z,12.58
2023-03-01T13:44:37.454Z,12.53
2023-03-01T13:45:42.070Z,12.59
2023-03-01T13:46:46.380Z,12.63
2023-03-01T13:47:53.997Z,12.60
2023-03-01T13:48:58.013Z,12.62
2023-03-01T13:50:03.731Z,12.57
2023-03-01T13:51:11.245Z,12.49
2023-03-01T13:52:31.250Z,12.38
2023-03-01T13:53:37.510Z,12.36
2023-03-01T13:54:39.850Z,12.28
2023-03-01T13:56:16.352Z,12.27
2023-03-01T13:57:25.810Z,12.30
2023-03-01T13:58:33.543Z,12.33
2023-03-01T13:59:48.304Z,12.29
2023-03-01T14:01:00.713Z,12.29
2023-03-01T14:02:02.673Z,12.35
2023-03-01T14:03:06.427Z,12.38
2023-03-01T14:04:32.470Z,12.41
2023-03-01T14:05:35.364Z,12.42
2023-03-01T14:06:37.319Z,12.36
2023-03-01T14:07:42.391Z,12.36
2023-03-01T14:08:45.739Z,12.38
2023-03-01T14:09:55.242Z,12.34
2023-03-01T14:11:25.909Z,12.25
2023-03-01T14:12:49.948Z,12.36
2023-03-01T14:14:21.883Z,12.28
2023-03-01T14:16:06.302Z,12.18
2023-03-01T14:17:32.487Z,12.24
2023-03-01T14:19:00.284Z,12.34
2023-03-01T14:20:15.539Z,12.35
2023-03-01T14:21:17.180Z,12.33
2023-03-01T14:22:37.653Z,12.35
2023-03-01T14:23:43.067Z,12.21
2023-03-01T14:24:50.273Z,12.13
2023-03-01T14:25:55.123Z,12.08
2023-03-01T14:26:56.795Z,12.07
2023-03-01T14:28:14.918Z,12.06
2023-03-01T14:29:39.561Z,12.14
2023-03-01T14:30:47.116Z,12.14
2023-03-01T14:31:53.358Z,12.09
2023-03-01T14:32:58.221Z,12.09
2023-03-01T14:33:59.879Z,12.04
2023-03-01T14:35:01.904Z,12.04
2023-03-01T14:36:09.619Z,12.06
2023-03-01T14:37:28.104Z,12.00
2023-03-01T14:38:31.786Z,11.87
2023-03-01T14:39:33.382Z,11.83
2023-03-01T14:40:38.239Z,11.84
2023-03-01T14:41:39.843Z,11.79
2023-03-01T14:42:41.388Z,11.70
2023-03-01T14:43:48.118Z,11.64
2023-03-01T14:44:52.612Z,11.66
2023-03-01T14:45:54.216Z,11.66
2023-03-01T14:46:58.158Z,11.64
2023-03-01T14:48:03.119Z,11.61
2023-03-01T14:49:05.093Z,11.67
2023-03-01T14:50:10.943Z,11.64
2023-03-01T14:51:13.390Z,11.55
2023-03-01T14:52:26.550Z,11.50
2023-03-01T14:53:34.055Z,11.50
2023-03-01T14:54:43.968Z,11.43
2023-03-01T14:55:49.363Z,11.41
2023-03-01T14:56:51.903Z,11.40
2023-03-01T14:57:53.669Z,11.38
2023-03-01T14:59:00.133Z,11.33
2023-03-01T15:00:07.242Z,11.28
2023-03-01T15:01:14.791Z,11.17
2023-03-01T15:02:20.312Z,11.20
2023-03-01T15:03:44.801Z,11.18
2023-03-01T15:04:49.826Z,11.14
2023-03-01T15:05:52.290Z,11.08
2023-03-01T15:06:56.002Z,11.00
2023-03-01T15:08:02.828Z,10.99
2023-03-01T15:09:05.340Z,11.00
2023-03-01T15:10:15.860Z,11.01
2023-03-01T15:11:17.364Z,11.04
2023-03-01T15:12:27.979Z,11.06
2023-03-01T15:13:36.695Z,11.05
2023-03-01T15:14:52.174Z,11.02
2023-03-01T15:16:12.036Z,11.06
2023-03-01T15:17:37.039Z,11.02
2023-03-01T15:18:44.783Z,11.01
2023-03-01T15:19:48.651Z,10.97
2023-03-01T15:20:51.903Z,10.92